sensor_id;sensor_type;location;lat;lon;timestamp;P1;durP1;ratioP1;P2;durP2;ratioP2
5795;SDS011;2924;51.458;7.046;2022-08-01T00:01:50;23.20;;;18.07;;
5795;SDS011;2924;51.458;7.046;2022-08-01T00:04:15;27.50;;;19.50;;
5795;SDS011;2924;51.458;7.046;2022-08-01T00:06:41;25.60;;;20.53;;
5795;SDS011;2924;51.458;7.046;2022-08-01T00:09:07;23.40;;;19.13;;
5795;SDS011;2924;51.458;7.046;2022-08-01T00:11:32;29.73;;;22.50;;
5795;SDS011;2924;51.458;7.046;2022-08-01T00:13:58;28.53;;;21.03;;
5795;SDS011;2924;51.458;7.046;2022-08-01T00:16:24;27.73;;;22.50;;
5795;SDS011;2924;51.458;7.046;2022-08-01T00:18:50;38.07;;;22.70;;
5795;SDS011;2924;51.458;7.046;2022-08-01T00:21:16;31.40;;;23.77;;
5795;SDS011;2924;51.458;7.046;2022-08-01T00:23:43;32.33;;;24.23;;
5795;SDS011;2924;51.458;7.046;2022-08-01T00:26:10;33.57;;;25.43;;
5795;SDS011;2924;51.458;7.046;2022-08-01T00:28:37;39.43;;;26.40;;
5795;SDS011;2924;51.458;7.046;2022-08-01T00:31:03;33.57;;;24.90;;
5795;SDS011;2924;51.458;7.046;2022-08-01T00:33:29;39.80;;;24.80;;
5795;SDS011;2924;51.458;7.046;2022-08-01T00:35:54;35.70;;;26.50;;
5795;SDS011;2924;51.458;7.046;2022-08-01T00:38:20;42.87;;;29.80;;
5795;SDS011;2924;51.458;7.046;2022-08-01T00:40:46;39.83;;;25.87;;
5795;SDS011;2924;51.458;7.046;2022-08-01T00:43:12;40.93;;;27.57;;
5795;SDS011;2924;51.458;7.046;2022-08-01T00:45:39;36.93;;;25.73;;
5795;SDS011;2924;51.458;7.046;2022-08-01T00:48:04;33.67;;;25.77;;
5795;SDS011;2924;51.458;7.046;2022-08-01T00:50:30;37.43;;;26.87;;
5795;SDS011;2924;51.458;7.046;2022-08-01T00:52:56;38.80;;;26.03;;
5795;SDS011;2924;51.458;7.046;2022-08-01T00:55:23;41.40;;;28.40;;
5795;SDS011;2924;51.458;7.046;2022-08-01T00:57:49;48.03;;;29.57;;
5795;SDS011;2924;51.458;7.046;2022-08-01T01:00:15;42.80;;;28.10;;
5795;SDS011;2924;51.458;7.046;2022-08-01T01:02:41;50.73;;;29.97;;
5795;SDS011;2924;51.458;7.046;2022-08-01T01:05:07;49.07;;;27.83;;
5795;SDS011;2924;51.458;7.046;2022-08-01T01:10:12;38.30;;;27.23;;
5795;SDS011;2924;51.458;7.046;2022-08-01T01:13:23;40.57;;;25.63;;
5795;SDS011;2924;51.458;7.046;2022-08-01T01:15:57;55.70;;;28.40;;
5795;SDS011;2924;51.458;7.046;2022-08-01T01:18:27;38.43;;;25.77;;
5795;SDS011;2924;51.458;7.046;2022-08-01T01:21:00;37.43;;;25.93;;
5795;SDS011;2924;51.458;7.046;2022-08-01T01:26:25;39.40;;;25.83;;
5795;SDS011;2924;51.458;7.046;2022-08-01T01:31:57;42.23;;;26.07;;
5795;SDS011;2924;51.458;7.046;2022-08-01T01:34:29;38.20;;;24.97;;
5795;SDS011;2924;51.458;7.046;2022-08-01T01:37:00;38.83;;;24.63;;
5795;SDS011;2924;51.458;7.046;2022-08-01T01:39:29;39.10;;;25.10;;
5795;SDS011;2924;51.458;7.046;2022-08-01T01:41:56;60.10;;;27.40;;
5795;SDS011;2924;51.458;7.046;2022-08-01T01:44:23;40.60;;;25.20;;
5795;SDS011;2924;51.458;7.046;2022-08-01T01:46:51;39.80;;;26.37;;
5795;SDS011;2924;51.458;7.046;2022-08-01T01:49:21;39.07;;;25.40;;
5795;SDS011;2924;51.458;7.046;2022-08-01T01:51:50;42.80;;;26.17;;
5795;SDS011;2924;51.458;7.046;2022-08-01T01:54:18;46.43;;;27.97;;
5795;SDS011;2924;51.458;7.046;2022-08-01T01:56:46;50.43;;;30.00;;
5795;SDS011;2924;51.458;7.046;2022-08-01T01:59:22;59.87;;;33.70;;
5795;SDS011;2924;51.458;7.046;2022-08-01T02:01:52;56.90;;;34.37;;
5795;SDS011;2924;51.458;7.046;2022-08-01T02:04:20;57.23;;;32.93;;
5795;SDS011;2924;51.458;7.046;2022-08-01T02:06:48;54.30;;;33.87;;
5795;SDS011;2924;51.458;7.046;2022-08-01T02:09:17;52.93;;;29.67;;
5795;SDS011;2924;51.458;7.046;2022-08-01T02:11:46;55.80;;;33.23;;
5795;SDS011;2924;51.458;7.046;2022-08-01T02:14:13;50.97;;;33.63;;
5795;SDS011;2924;51.458;7.046;2022-08-01T02:16:40;52.73;;;31.33;;
5795;SDS011;2924;51.458;7.046;2022-08-01T02:19:09;53.60;;;32.40;;
5795;SDS011;2924;51.458;7.046;2022-08-01T02:21:37;55.23;;;33.17;;
5795;SDS011;2924;51.458;7.046;2022-08-01T02:30:02;59.50;;;31.40;;
5795;SDS011;2924;51.458;7.046;2022-08-01T02:32:31;53.20;;;31.83;;
5795;SDS011;2924;51.458;7.046;2022-08-01T02:35:23;52.80;;;31.87;;
5795;SDS011;2924;51.458;7.046;2022-08-01T02:37:51;59.23;;;30.83;;
5795;SDS011;2924;51.458;7.046;2022-08-01T02:40:19;42.60;;;27.70;;
5795;SDS011;2924;51.458;7.046;2022-08-01T02:42:50;45.10;;;27.97;;
5795;SDS011;2924;51.458;7.046;2022-08-01T02:45:18;56.93;;;29.20;;
5795;SDS011;2924;51.458;7.046;2022-08-01T02:47:45;55.93;;;28.70;;
5795;SDS011;2924;51.458;7.046;2022-08-01T02:50:14;53.13;;;29.67;;
5795;SDS011;2924;51.458;7.046;2022-08-01T02:52:42;50.53;;;29.37;;
5795;SDS011;2924;51.458;7.046;2022-08-01T02:55:10;58.17;;;29.70;;
5795;SDS011;2924;51.458;7.046;2022-08-01T02:57:37;47.23;;;25.70;;
5795;SDS011;2924;51.458;7.046;2022-08-01T03:00:04;58.40;;;29.30;;
5795;SDS011;2924;51.458;7.046;2022-08-01T03:02:31;43.47;;;27.20;;
5795;SDS011;2924;51.458;7.046;2022-08-01T03:04:59;55.80;;;33.03;;
5795;SDS011;2924;51.458;7.046;2022-08-01T03:07:27;44.97;;;28.60;;
5795;SDS011;2924;51.458;7.046;2022-08-01T03:09:54;50.20;;;29.83;;
5795;SDS011;2924;51.458;7.046;2022-08-01T03:12:23;47.13;;;29.20;;
5795;SDS011;2924;51.458;7.046;2022-08-01T03:14:53;56.40;;;29.40;;
5795;SDS011;2924;51.458;7.046;2022-08-01T03:17:22;66.90;;;37.87;;
5795;SDS011;2924;51.458;7.046;2022-08-01T03:19:50;67.77;;;40.10;;
5795;SDS011;2924;51.458;7.046;2022-08-01T03:22:17;74.67;;;34.10;;
5795;SDS011;2924;51.458;7.046;2022-08-01T03:24:47;58.63;;;34.83;;
5795;SDS011;2924;51.458;7.046;2022-08-01T03:27:18;74.17;;;38.00;;
5795;SDS011;2924;51.458;7.046;2022-08-01T03:29:45;60.03;;;33.53;;
5795;SDS011;2924;51.458;7.046;2022-08-01T03:32:13;61.93;;;35.33;;
5795;SDS011;2924;51.458;7.046;2022-08-01T03:34:40;62.67;;;33.47;;
5795;SDS011;2924;51.458;7.046;2022-08-01T03:37:07;71.37;;;34.43;;
5795;SDS011;2924;51.458;7.046;2022-08-01T03:39:39;52.33;;;31.90;;
5795;SDS011;2924;51.458;7.046;2022-08-01T03:42:15;52.63;;;30.17;;
5795;SDS011;2924;51.458;7.046;2022-08-01T03:44:44;54.60;;;31.13;;
5795;SDS011;2924;51.458;7.046;2022-08-01T03:47:17;40.90;;;26.97;;
5795;SDS011;2924;51.458;7.046;2022-08-01T03:49:47;45.90;;;28.20;;
5795;SDS011;2924;51.458;7.046;2022-08-01T03:52:15;46.30;;;26.37;;
5795;SDS011;2924;51.458;7.046;2022-08-01T03:54:43;44.30;;;26.60;;
5795;SDS011;2924;51.458;7.046;2022-08-01T03:57:12;44.53;;;25.53;;
5795;SDS011;2924;51.458;7.046;2022-08-01T03:59:40;52.60;;;26.33;;
5795;SDS011;2924;51.458;7.046;2022-08-01T04:02:07;42.93;;;26.50;;
5795;SDS011;2924;51.458;7.046;2022-08-01T04:04:33;41.27;;;26.73;;
5795;SDS011;2924;51.458;7.046;2022-08-01T04:06:58;47.43;;;26.00;;
5795;SDS011;2924;51.458;7.046;2022-08-01T04:09:29;48.33;;;27.27;;
5795;SDS011;2924;51.458;7.046;2022-08-01T04:11:57;42.27;;;24.80;;
5795;SDS011;2924;51.458;7.046;2022-08-01T04:14:24;53.13;;;25.63;;
5795;SDS011;2924;51.458;7.046;2022-08-01T04:16:51;46.43;;;24.77;;
5795;SDS011;2924;51.458;7.046;2022-08-01T04:19:16;36.80;;;23.13;;
5795;SDS011;2924;51.458;7.046;2022-08-01T04:21:42;39.43;;;23.47;;
5795;SDS011;2924;51.458;7.046;2022-08-01T04:24:12;36.10;;;21.80;;
5795;SDS011;2924;51.458;7.046;2022-08-01T04:26:41;35.47;;;23.60;;
5795;SDS011;2924;51.458;7.046;2022-08-01T04:29:09;48.50;;;22.57;;
5795;SDS011;2924;51.458;7.046;2022-08-01T04:31:35;33.67;;;21.77;;
5795;SDS011;2924;51.458;7.046;2022-08-01T04:34:04;38.60;;;22.90;;
5795;SDS011;2924;51.458;7.046;2022-08-01T04:36:32;31.17;;;20.50;;
5795;SDS011;2924;51.458;7.046;2022-08-01T04:39:01;33.73;;;21.73;;
5795;SDS011;2924;51.458;7.046;2022-08-01T04:41:30;35.60;;;22.37;;
5795;SDS011;2924;51.458;7.046;2022-08-01T04:43:56;40.07;;;22.70;;
5795;SDS011;2924;51.458;7.046;2022-08-01T04:46:24;37.37;;;23.83;;
5795;SDS011;2924;51.458;7.046;2022-08-01T04:48:51;34.50;;;23.03;;
5795;SDS011;2924;51.458;7.046;2022-08-01T04:51:19;38.20;;;22.70;;
5795;SDS011;2924;51.458;7.046;2022-08-01T04:53:46;38.97;;;21.50;;
5795;SDS011;2924;51.458;7.046;2022-08-01T04:56:13;33.03;;;23.17;;
5795;SDS011;2924;51.458;7.046;2022-08-01T04:58:42;42.13;;;22.90;;
5795;SDS011;2924;51.458;7.046;2022-08-01T05:01:09;34.77;;;21.60;;
5795;SDS011;2924;51.458;7.046;2022-08-01T05:03:35;31.80;;;20.67;;
5795;SDS011;2924;51.458;7.046;2022-08-01T05:06:01;36.10;;;22.80;;
5795;SDS011;2924;51.458;7.046;2022-08-01T05:08:27;39.43;;;21.80;;
5795;SDS011;2924;51.458;7.046;2022-08-01T05:10:53;34.87;;;21.50;;
5795;SDS011;2924;51.458;7.046;2022-08-01T05:13:19;39.20;;;23.17;;
5795;SDS011;2924;51.458;7.046;2022-08-01T05:15:44;33.47;;;21.67;;
5795;SDS011;2924;51.458;7.046;2022-08-01T05:18:10;42.00;;;23.73;;
5795;SDS011;2924;51.458;7.046;2022-08-01T05:20:36;39.30;;;23.93;;
5795;SDS011;2924;51.458;7.046;2022-08-01T05:23:05;33.90;;;22.37;;
5795;SDS011;2924;51.458;7.046;2022-08-01T05:25:31;32.50;;;22.60;;
5795;SDS011;2924;51.458;7.046;2022-08-01T05:27:57;36.53;;;22.10;;
5795;SDS011;2924;51.458;7.046;2022-08-01T05:30:22;31.43;;;20.53;;
5795;SDS011;2924;51.458;7.046;2022-08-01T05:32:48;26.83;;;18.60;;
5795;SDS011;2924;51.458;7.046;2022-08-01T05:35:14;28.10;;;20.97;;
5795;SDS011;2924;51.458;7.046;2022-08-01T05:37:39;27.90;;;19.33;;
5795;SDS011;2924;51.458;7.046;2022-08-01T05:40:05;29.73;;;19.27;;
5795;SDS011;2924;51.458;7.046;2022-08-01T05:42:31;40.87;;;20.40;;
5795;SDS011;2924;51.458;7.046;2022-08-01T05:44:57;29.60;;;20.57;;
5795;SDS011;2924;51.458;7.046;2022-08-01T05:47:23;34.20;;;19.40;;
5795;SDS011;2924;51.458;7.046;2022-08-01T05:49:48;33.30;;;19.27;;
5795;SDS011;2924;51.458;7.046;2022-08-01T05:52:14;31.57;;;18.87;;
5795;SDS011;2924;51.458;7.046;2022-08-01T05:54:40;23.10;;;16.27;;
5795;SDS011;2924;51.458;7.046;2022-08-01T05:57:05;28.87;;;17.80;;
5795;SDS011;2924;51.458;7.046;2022-08-01T05:59:31;25.40;;;17.80;;
5795;SDS011;2924;51.458;7.046;2022-08-01T06:01:57;27.37;;;17.03;;
5795;SDS011;2924;51.458;7.046;2022-08-01T06:04:23;25.83;;;17.00;;
5795;SDS011;2924;51.458;7.046;2022-08-01T06:06:49;39.37;;;17.80;;
5795;SDS011;2924;51.458;7.046;2022-08-01T06:09:14;26.57;;;16.57;;
5795;SDS011;2924;51.458;7.046;2022-08-01T06:11:40;24.97;;;16.43;;
5795;SDS011;2924;51.458;7.046;2022-08-01T06:14:06;24.33;;;14.13;;
5795;SDS011;2924;51.458;7.046;2022-08-01T06:16:32;18.63;;;14.70;;
5795;SDS011;2924;51.458;7.046;2022-08-01T06:18:58;20.13;;;13.57;;
5795;SDS011;2924;51.458;7.046;2022-08-01T06:21:24;16.57;;;12.73;;
5795;SDS011;2924;51.458;7.046;2022-08-01T06:23:49;15.37;;;11.40;;
5795;SDS011;2924;51.458;7.046;2022-08-01T06:26:18;16.50;;;10.70;;
5795;SDS011;2924;51.458;7.046;2022-08-01T06:28:44;16.60;;;11.37;;
5795;SDS011;2924;51.458;7.046;2022-08-01T06:31:10;12.10;;;10.80;;
5795;SDS011;2924;51.458;7.046;2022-08-01T06:33:37;11.03;;;8.80;;
5795;SDS011;2924;51.458;7.046;2022-08-01T06:36:03;17.70;;;9.67;;
5795;SDS011;2924;51.458;7.046;2022-08-01T06:38:29;14.30;;;10.23;;
5795;SDS011;2924;51.458;7.046;2022-08-01T06:40:54;10.13;;;7.30;;
5795;SDS011;2924;51.458;7.046;2022-08-01T06:43:20;8.37;;;7.30;;
5795;SDS011;2924;51.458;7.046;2022-08-01T06:45:46;9.17;;;7.40;;
5795;SDS011;2924;51.458;7.046;2022-08-01T06:48:12;8.13;;;7.07;;
5795;SDS011;2924;51.458;7.046;2022-08-01T06:50:38;11.83;;;7.67;;
5795;SDS011;2924;51.458;7.046;2022-08-01T06:53:04;8.40;;;5.83;;
5795;SDS011;2924;51.458;7.046;2022-08-01T06:55:30;8.27;;;6.10;;
5795;SDS011;2924;51.458;7.046;2022-08-01T06:57:55;10.53;;;5.10;;
5795;SDS011;2924;51.458;7.046;2022-08-01T07:00:22;7.53;;;5.07;;
5795;SDS011;2924;51.458;7.046;2022-08-01T07:02:49;5.03;;;4.50;;
5795;SDS011;2924;51.458;7.046;2022-08-01T07:05:19;8.43;;;5.80;;
5795;SDS011;2924;51.458;7.046;2022-08-01T07:07:45;18.40;;;5.80;;
5795;SDS011;2924;51.458;7.046;2022-08-01T07:10:11;9.27;;;7.03;;
5795;SDS011;2924;51.458;7.046;2022-08-01T07:12:36;9.23;;;6.77;;
5795;SDS011;2924;51.458;7.046;2022-08-01T07:15:06;20.13;;;9.53;;
5795;SDS011;2924;51.458;7.046;2022-08-01T07:17:36;10.10;;;7.70;;
5795;SDS011;2924;51.458;7.046;2022-08-01T07:20:09;12.00;;;7.93;;
5795;SDS011;2924;51.458;7.046;2022-08-01T07:22:37;15.00;;;9.20;;
5795;SDS011;2924;51.458;7.046;2022-08-01T07:25:03;12.15;;;8.52;;
5795;SDS011;2924;51.458;7.046;2022-08-01T07:27:30;13.37;;;8.50;;
5795;SDS011;2924;51.458;7.046;2022-08-01T07:29:56;12.43;;;9.90;;
5795;SDS011;2924;51.458;7.046;2022-08-01T07:32:22;16.50;;;9.40;;
5795;SDS011;2924;51.458;7.046;2022-08-01T07:34:47;11.23;;;9.00;;
5795;SDS011;2924;51.458;7.046;2022-08-01T07:37:13;15.27;;;8.50;;
5795;SDS011;2924;51.458;7.046;2022-08-01T07:39:39;9.83;;;8.13;;
5795;SDS011;2924;51.458;7.046;2022-08-01T07:42:04;15.70;;;7.87;;
5795;SDS011;2924;51.458;7.046;2022-08-01T07:44:30;11.87;;;6.80;;
5795;SDS011;2924;51.458;7.046;2022-08-01T07:46:56;8.67;;;5.90;;
5795;SDS011;2924;51.458;7.046;2022-08-01T07:49:21;9.37;;;6.00;;
5795;SDS011;2924;51.458;7.046;2022-08-01T07:51:47;8.80;;;4.73;;
5795;SDS011;2924;51.458;7.046;2022-08-01T07:54:13;7.60;;;4.40;;
5795;SDS011;2924;51.458;7.046;2022-08-01T07:56:39;5.13;;;4.60;;
5795;SDS011;2924;51.458;7.046;2022-08-01T07:59:05;5.60;;;4.03;;
5795;SDS011;2924;51.458;7.046;2022-08-01T08:01:30;4.32;;;3.92;;
5795;SDS011;2924;51.458;7.046;2022-08-01T08:03:56;5.32;;;3.90;;
5795;SDS011;2924;51.458;7.046;2022-08-01T08:06:22;3.50;;;3.10;;
5795;SDS011;2924;51.458;7.046;2022-08-01T08:08:47;4.72;;;1.73;;
5795;SDS011;2924;51.458;7.046;2022-08-01T08:11:13;5.55;;;1.95;;
5795;SDS011;2924;51.458;7.046;2022-08-01T08:13:39;1.73;;;1.60;;
5795;SDS011;2924;51.458;7.046;2022-08-01T08:16:04;1.63;;;1.52;;
5795;SDS011;2924;51.458;7.046;2022-08-01T08:18:30;2.70;;;1.63;;
5795;SDS011;2924;51.458;7.046;2022-08-01T08:20:56;2.58;;;2.03;;
5795;SDS011;2924;51.458;7.046;2022-08-01T08:23:21;4.55;;;2.90;;
5795;SDS011;2924;51.458;7.046;2022-08-01T08:26:05;6.10;;;2.75;;
5795;SDS011;2924;51.458;7.046;2022-08-01T08:28:31;8.55;;;2.38;;
5795;SDS011;2924;51.458;7.046;2022-08-01T08:30:57;7.40;;;2.60;;
5795;SDS011;2924;51.458;7.046;2022-08-01T08:33:24;1.75;;;1.63;;
5795;SDS011;2924;51.458;7.046;2022-08-01T08:35:49;1.73;;;1.10;;
5795;SDS011;2924;51.458;7.046;2022-08-01T08:38:15;1.20;;;1.20;;
5795;SDS011;2924;51.458;7.046;2022-08-01T08:40:41;1.58;;;1.48;;
5795;SDS011;2924;51.458;7.046;2022-08-01T08:43:07;2.00;;;1.90;;
5795;SDS011;2924;51.458;7.046;2022-08-01T08:45:33;5.37;;;2.37;;
5795;SDS011;2924;51.458;7.046;2022-08-01T08:47:59;3.40;;;2.43;;
5795;SDS011;2924;51.458;7.046;2022-08-01T08:50:34;4.24;;;3.45;;
5795;SDS011;2924;51.458;7.046;2022-08-01T08:53:02;2.87;;;2.60;;
5795;SDS011;2924;51.458;7.046;2022-08-01T08:55:29;2.53;;;1.90;;
5795;SDS011;2924;51.458;7.046;2022-08-01T08:57:55;1.27;;;1.20;;
5795;SDS011;2924;51.458;7.046;2022-08-01T09:00:22;1.60;;;1.60;;
5795;SDS011;2924;51.458;7.046;2022-08-01T09:02:48;2.30;;;2.10;;
5795;SDS011;2924;51.458;7.046;2022-08-01T09:05:14;3.38;;;2.38;;
5795;SDS011;2924;51.458;7.046;2022-08-01T09:07:39;2.15;;;2.05;;
5795;SDS011;2924;51.458;7.046;2022-08-01T09:10:05;4.47;;;2.60;;
5795;SDS011;2924;51.458;7.046;2022-08-01T09:12:32;2.20;;;2.10;;
5795;SDS011;2924;51.458;7.046;2022-08-01T09:14:58;1.65;;;1.55;;
5795;SDS011;2924;51.458;7.046;2022-08-01T09:17:23;1.38;;;1.38;;
5795;SDS011;2924;51.458;7.046;2022-08-01T09:19:54;0.82;;;0.82;;
5795;SDS011;2924;51.458;7.046;2022-08-01T09:22:21;1.67;;;1.58;;
5795;SDS011;2924;51.458;7.046;2022-08-01T09:24:58;1.23;;;1.13;;
5795;SDS011;2924;51.458;7.046;2022-08-01T09:27:24;1.83;;;1.23;;
5795;SDS011;2924;51.458;7.046;2022-08-01T09:29:53;1.05;;;1.05;;
5795;SDS011;2924;51.458;7.046;2022-08-01T09:32:20;2.67;;;0.60;;
5795;SDS011;2924;51.458;7.046;2022-08-01T09:34:46;1.45;;;1.15;;
5795;SDS011;2924;51.458;7.046;2022-08-01T09:37:11;2.42;;;1.00;;
5795;SDS011;2924;51.458;7.046;2022-08-01T09:39:42;1.13;;;0.95;;
5795;SDS011;2924;51.458;7.046;2022-08-01T09:42:20;0.70;;;0.70;;
5795;SDS011;2924;51.458;7.046;2022-08-01T09:44:48;1.00;;;0.75;;
5795;SDS011;2924;51.458;7.046;2022-08-01T09:47:14;0.90;;;0.90;;
5795;SDS011;2924;51.458;7.046;2022-08-01T09:49:41;1.00;;;1.00;;
5795;SDS011;2924;51.458;7.046;2022-08-01T09:52:14;1.48;;;1.38;;
5795;SDS011;2924;51.458;7.046;2022-08-01T09:54:51;3.00;;;1.23;;
5795;SDS011;2924;51.458;7.046;2022-08-01T09:57:20;3.38;;;1.30;;
5795;SDS011;2924;51.458;7.046;2022-08-01T09:59:47;1.00;;;1.00;;
5795;SDS011;2924;51.458;7.046;2022-08-01T10:02:26;0.98;;;0.98;;
5795;SDS011;2924;51.458;7.046;2022-08-01T10:04:56;1.20;;;1.05;;
5795;SDS011;2924;51.458;7.046;2022-08-01T10:07:22;2.13;;;1.33;;
5795;SDS011;2924;51.458;7.046;2022-08-01T10:09:47;8.90;;;1.58;;
5795;SDS011;2924;51.458;7.046;2022-08-01T10:12:14;1.60;;;1.50;;
5795;SDS011;2924;51.458;7.046;2022-08-01T10:14:43;1.40;;;1.40;;
5795;SDS011;2924;51.458;7.046;2022-08-01T10:17:12;1.73;;;1.63;;
5795;SDS011;2924;51.458;7.046;2022-08-01T10:19:40;1.67;;;1.45;;
5795;SDS011;2924;51.458;7.046;2022-08-01T10:22:07;6.15;;;1.38;;
5795;SDS011;2924;51.458;7.046;2022-08-01T10:24:36;1.33;;;1.15;;
5795;SDS011;2924;51.458;7.046;2022-08-01T10:27:06;5.15;;;1.00;;
5795;SDS011;2924;51.458;7.046;2022-08-01T10:29:50;1.77;;;1.40;;
5795;SDS011;2924;51.458;7.046;2022-08-01T10:32:21;1.88;;;1.23;;
5795;SDS011;2924;51.458;7.046;2022-08-01T10:34:48;2.25;;;1.23;;
5795;SDS011;2924;51.458;7.046;2022-08-01T10:37:14;1.35;;;1.20;;
5795;SDS011;2924;51.458;7.046;2022-08-01T10:39:42;3.70;;;1.20;;
5795;SDS011;2924;51.458;7.046;2022-08-01T10:42:09;2.55;;;1.00;;
5795;SDS011;2924;51.458;7.046;2022-08-01T10:44:37;2.38;;;1.27;;
5795;SDS011;2924;51.458;7.046;2022-08-01T10:47:06;1.15;;;1.05;;
5795;SDS011;2924;51.458;7.046;2022-08-01T10:49:41;1.17;;;1.08;;
5795;SDS011;2924;51.458;7.046;2022-08-01T10:52:17;1.30;;;1.20;;
5795;SDS011;2924;51.458;7.046;2022-08-01T10:54:43;0.70;;;0.70;;
5795;SDS011;2924;51.458;7.046;2022-08-01T10:57:10;1.48;;;0.88;;
5795;SDS011;2924;51.458;7.046;2022-08-01T10:59:47;0.77;;;0.77;;
5795;SDS011;2924;51.458;7.046;2022-08-01T11:02:19;1.17;;;0.77;;
5795;SDS011;2924;51.458;7.046;2022-08-01T11:05:06;2.38;;;1.00;;
5795;SDS011;2924;51.458;7.046;2022-08-01T11:07:46;2.53;;;1.20;;
5795;SDS011;2924;51.458;7.046;2022-08-01T11:12:58;1.20;;;0.82;;
5795;SDS011;2924;51.458;7.046;2022-08-01T11:15:26;0.93;;;0.52;;
5795;SDS011;2924;51.458;7.046;2022-08-01T11:17:55;0.57;;;0.57;;
5795;SDS011;2924;51.458;7.046;2022-08-01T11:20:25;0.65;;;0.65;;
5795;SDS011;2924;51.458;7.046;2022-08-01T11:30:46;0.40;;;0.40;;
5795;SDS011;2924;51.458;7.046;2022-08-01T11:33:14;0.75;;;0.52;;
5795;SDS011;2924;51.458;7.046;2022-08-01T11:41:09;0.60;;;0.50;;
5795;SDS011;2924;51.458;7.046;2022-08-01T11:44:08;0.40;;;0.40;;
5795;SDS011;2924;51.458;7.046;2022-08-01T11:46:58;0.60;;;0.45;;
5795;SDS011;2924;51.458;7.046;2022-08-01T11:52:05;0.60;;;0.57;;
5795;SDS011;2924;51.458;7.046;2022-08-01T11:57:19;0.95;;;0.50;;
5795;SDS011;2924;51.458;7.046;2022-08-01T11:59:51;1.20;;;0.40;;
5795;SDS011;2924;51.458;7.046;2022-08-01T12:02:24;2.15;;;0.57;;
5795;SDS011;2924;51.458;7.046;2022-08-01T12:04:55;0.98;;;0.77;;
5795;SDS011;2924;51.458;7.046;2022-08-01T12:07:26;3.53;;;0.65;;
5795;SDS011;2924;51.458;7.046;2022-08-01T12:10:15;0.88;;;0.40;;
5795;SDS011;2924;51.458;7.046;2022-08-01T12:12:49;0.50;;;0.50;;
5795;SDS011;2924;51.458;7.046;2022-08-01T12:15:19;0.60;;;0.50;;
5795;SDS011;2924;51.458;7.046;2022-08-01T12:17:53;0.88;;;0.60;;
5795;SDS011;2924;51.458;7.046;2022-08-01T12:20:22;0.80;;;0.80;;
5795;SDS011;2924;51.458;7.046;2022-08-01T12:22:55;3.22;;;0.63;;
5795;SDS011;2924;51.458;7.046;2022-08-01T12:25:22;1.08;;;0.70;;
5795;SDS011;2924;51.458;7.046;2022-08-01T12:27:48;1.00;;;0.50;;
5795;SDS011;2924;51.458;7.046;2022-08-01T12:30:15;1.08;;;0.50;;
5795;SDS011;2924;51.458;7.046;2022-08-01T12:32:44;1.00;;;0.60;;
5795;SDS011;2924;51.458;7.046;2022-08-01T12:35:15;1.23;;;0.63;;
5795;SDS011;2924;51.458;7.046;2022-08-01T12:37:46;0.55;;;0.55;;
5795;SDS011;2924;51.458;7.046;2022-08-01T12:40:14;3.13;;;1.02;;
5795;SDS011;2924;51.458;7.046;2022-08-01T12:42:57;0.50;;;0.50;;
5795;SDS011;2924;51.458;7.046;2022-08-01T12:45:33;3.83;;;0.70;;
5795;SDS011;2924;51.458;7.046;2022-08-01T12:48:09;1.00;;;0.73;;
5795;SDS011;2924;51.458;7.046;2022-08-01T12:50:39;0.63;;;0.63;;
5795;SDS011;2924;51.458;7.046;2022-08-01T12:53:09;1.08;;;0.73;;
5795;SDS011;2924;51.458;7.046;2022-08-01T12:58:15;0.80;;;0.80;;
5795;SDS011;2924;51.458;7.046;2022-08-01T13:00:42;6.20;;;0.95;;
5795;SDS011;2924;51.458;7.046;2022-08-01T13:03:10;0.60;;;0.60;;
5795;SDS011;2924;51.458;7.046;2022-08-01T13:08:13;0.90;;;0.80;;
5795;SDS011;2924;51.458;7.046;2022-08-01T13:10:40;0.65;;;0.60;;
5795;SDS011;2924;51.458;7.046;2022-08-01T13:13:07;2.05;;;0.80;;
5795;SDS011;2924;51.458;7.046;2022-08-01T13:15:34;1.00;;;0.80;;
5795;SDS011;2924;51.458;7.046;2022-08-01T13:20:48;1.80;;;0.82;;
5795;SDS011;2924;51.458;7.046;2022-08-01T13:23:15;2.25;;;0.40;;
5795;SDS011;2924;51.458;7.046;2022-08-01T13:25:49;3.00;;;0.82;;
5795;SDS011;2924;51.458;7.046;2022-08-01T13:28:21;0.82;;;0.55;;
5795;SDS011;2924;51.458;7.046;2022-08-01T13:30:52;2.25;;;0.70;;
5795;SDS011;2924;51.458;7.046;2022-08-01T13:33:21;0.85;;;0.77;;
5795;SDS011;2924;51.458;7.046;2022-08-01T13:35:49;0.75;;;0.65;;
5795;SDS011;2924;51.458;7.046;2022-08-01T13:38:16;1.67;;;1.08;;
5795;SDS011;2924;51.458;7.046;2022-08-01T13:40:42;0.70;;;0.70;;
5795;SDS011;2924;51.458;7.046;2022-08-01T13:43:08;2.38;;;0.77;;
5795;SDS011;2924;51.458;7.046;2022-08-01T13:45:34;2.47;;;0.93;;
5795;SDS011;2924;51.458;7.046;2022-08-01T13:48:00;2.88;;;0.80;;
5795;SDS011;2924;51.458;7.046;2022-08-01T13:50:26;1.05;;;0.93;;
5795;SDS011;2924;51.458;7.046;2022-08-01T13:52:51;0.68;;;0.68;;
5795;SDS011;2924;51.458;7.046;2022-08-01T13:55:20;0.93;;;0.82;;
5795;SDS011;2924;51.458;7.046;2022-08-01T13:57:46;1.85;;;0.80;;
5795;SDS011;2924;51.458;7.046;2022-08-01T14:00:11;0.75;;;0.60;;
5795;SDS011;2924;51.458;7.046;2022-08-01T14:02:38;1.08;;;0.98;;
5795;SDS011;2924;51.458;7.046;2022-08-01T14:05:04;1.10;;;0.70;;
5795;SDS011;2924;51.458;7.046;2022-08-01T14:07:30;0.60;;;0.60;;
5795;SDS011;2924;51.458;7.046;2022-08-01T14:09:56;0.80;;;0.70;;
5795;SDS011;2924;51.458;7.046;2022-08-01T14:12:22;0.80;;;0.80;;
5795;SDS011;2924;51.458;7.046;2022-08-01T14:14:48;1.05;;;0.75;;
5795;SDS011;2924;51.458;7.046;2022-08-01T14:17:14;0.85;;;0.80;;
5795;SDS011;2924;51.458;7.046;2022-08-01T14:19:39;0.88;;;0.60;;
5795;SDS011;2924;51.458;7.046;2022-08-01T14:22:05;1.05;;;0.57;;
5795;SDS011;2924;51.458;7.046;2022-08-01T14:24:31;1.08;;;0.70;;
5795;SDS011;2924;51.458;7.046;2022-08-01T14:26:57;3.28;;;0.63;;
5795;SDS011;2924;51.458;7.046;2022-08-01T14:29:23;0.95;;;0.60;;
5795;SDS011;2924;51.458;7.046;2022-08-01T14:31:48;2.45;;;1.27;;
5795;SDS011;2924;51.458;7.046;2022-08-01T14:34:14;2.60;;;0.63;;
5795;SDS011;2924;51.458;7.046;2022-08-01T14:36:40;0.77;;;0.60;;
5795;SDS011;2924;51.458;7.046;2022-08-01T14:39:07;0.98;;;0.98;;
5795;SDS011;2924;51.458;7.046;2022-08-01T14:41:33;2.55;;;0.90;;
5795;SDS011;2924;51.458;7.046;2022-08-01T14:43:59;2.05;;;1.58;;
5795;SDS011;2924;51.458;7.046;2022-08-01T14:46:24;1.67;;;1.45;;
5795;SDS011;2924;51.458;7.046;2022-08-01T14:48:50;1.13;;;0.70;;
5795;SDS011;2924;51.458;7.046;2022-08-01T14:51:16;5.32;;;1.13;;
5795;SDS011;2924;51.458;7.046;2022-08-01T14:53:42;3.10;;;1.08;;
5795;SDS011;2924;51.458;7.046;2022-08-01T14:56:07;1.13;;;1.02;;
5795;SDS011;2924;51.458;7.046;2022-08-01T14:58:33;2.00;;;1.10;;
5795;SDS011;2924;51.458;7.046;2022-08-01T15:00:59;1.52;;;1.17;;
5795;SDS011;2924;51.458;7.046;2022-08-01T15:03:25;1.20;;;0.90;;
5795;SDS011;2924;51.458;7.046;2022-08-01T15:05:51;3.90;;;1.20;;
5795;SDS011;2924;51.458;7.046;2022-08-01T15:08:17;1.50;;;1.00;;
5795;SDS011;2924;51.458;7.046;2022-08-01T15:10:42;0.88;;;0.80;;
5795;SDS011;2924;51.458;7.046;2022-08-01T15:13:08;4.60;;;1.13;;
5795;SDS011;2924;51.458;7.046;2022-08-01T15:15:34;3.50;;;1.15;;
5795;SDS011;2924;51.458;7.046;2022-08-01T15:17:59;4.60;;;1.27;;
5795;SDS011;2924;51.458;7.046;2022-08-01T15:20:25;1.75;;;1.05;;
5795;SDS011;2924;51.458;7.046;2022-08-01T15:22:52;1.98;;;1.35;;
5795;SDS011;2924;51.458;7.046;2022-08-01T15:25:18;3.08;;;0.90;;
5795;SDS011;2924;51.458;7.046;2022-08-01T15:27:44;4.90;;;1.17;;
5795;SDS011;2924;51.458;7.046;2022-08-01T15:30:10;1.40;;;1.25;;
5795;SDS011;2924;51.458;7.046;2022-08-01T15:32:37;1.27;;;1.23;;
5795;SDS011;2924;51.458;7.046;2022-08-01T15:35:03;2.05;;;1.38;;
5795;SDS011;2924;51.458;7.046;2022-08-01T15:37:31;2.55;;;1.85;;
5795;SDS011;2924;51.458;7.046;2022-08-01T15:39:56;1.42;;;1.30;;
5795;SDS011;2924;51.458;7.046;2022-08-01T15:42:22;7.75;;;1.52;;
5795;SDS011;2924;51.458;7.046;2022-08-01T15:44:48;1.85;;;1.60;;
5795;SDS011;2924;51.458;7.046;2022-08-01T15:47:14;4.35;;;1.77;;
5795;SDS011;2924;51.458;7.046;2022-08-01T15:49:40;1.48;;;1.20;;
5795;SDS011;2924;51.458;7.046;2022-08-01T15:52:06;2.60;;;1.50;;